Time;durP1;ratioP1;P1;durP2;ratioP2;P2;SDS_P1;SDS_P2;PMS_P1;PMS_P2;Temp;Humidity;BMP_temperature;BMP_pressure;BME280_temperature;BME280_humidity;BME280_pressure;Samples;Min_cycle;Max_cycle;Signal;HPM_P1;HPM_P2
2023/01/31 00:01:14;;;;;;;13.07;7.80;;;;;;;;;;5072748;28;20666;-76
2023/01/31 00:03:44;;;;;;;10.90;7.53;;;;;;;;;;5073319;28;20764;-78
2023/01/31 00:06:14;;;;;;;9.43;6.83;;;;;;;;;;5059935;28;20565;-76
2023/01/31 00:08:42;;;;;;;11.77;6.80;;;;;;;;;;5051153;28;23010;-76
2023/01/31 00:11:09;;;;;;;10.13;6.87;;;;;;;;;;5053831;28;20205;-77
2023/01/31 00:13:37;;;;;;;10.70;6.90;;;;;;;;;;5054513;28;20259;-77
2023/01/31 00:16:05;;;;;;;11.23;6.67;;;;;;;;;;5056457;28;20222;-78
2023/01/31 00:18:33;;;;;;;9.43;6.30;;;;;;;;;;5051583;28;20213;-77
2023/01/31 00:21:09;;;;;;;9.60;6.57;;;;;;;;;;5055153;28;20214;-78
2023/01/31 00:23:38;;;;;;;12.10;6.70;;;;;;;;;;5053309;28;20219;-77
2023/01/31 00:26:08;;;;;;;12.33;7.47;;;;;;;;;;5047671;28;20624;-77
2023/01/31 00:28:35;;;;;;;10.70;7.23;;;;;;;;;;5052794;28;20293;-78
2023/01/31 00:31:04;;;;;;;10.83;6.10;;;;;;;;;;5044913;28;20217;-76
2023/01/31 00:33:31;;;;;;;8.77;6.00;;;;;;;;;;5051377;28;20292;-74
2023/01/31 00:35:58;;;;;;;11.03;6.93;;;;;;;;;;5047039;28;20694;-78
2023/01/31 00:38:25;;;;;;;11.83;7.30;;;;;;;;;;5050985;28;20194;-76
2023/01/31 00:40:53;;;;;;;9.67;7.13;;;;;;;;;;5045244;28;20212;-75
2023/01/31 00:43:21;;;;;;;10.87;6.87;;;;;;;;;;5048917;28;20240;-75
2023/01/31 00:45:48;;;;;;;14.67;7.40;;;;;;;;;;5045188;28;20220;-75
2023/01/31 00:48:15;;;;;;;12.57;6.90;;;;;;;;;;5047717;28;20210;-76
2023/01/31 00:50:43;;;;;;;10.80;6.20;;;;;;;;;;5049052;28;20212;-76
2023/01/31 00:53:10;;;;;;;12.33;6.43;;;;;;;;;;5050959;28;20586;-76
2023/01/31 00:55:38;;;;;;;11.50;6.47;;;;;;;;;;5057478;28;20216;-76
2023/01/31 00:58:05;;;;;;;11.80;6.63;;;;;;;;;;5061982;28;20641;-76
2023/01/31 01:00:32;;;;;;;12.47;8.73;;;;;;;;;;5062874;28;21034;-76
2023/01/31 01:03:00;;;;;;;12.60;7.53;;;;;;;;;;5064653;28;20757;-74
2023/01/31 01:05:28;;;;;;;11.67;6.67;;;;;;;;;;5064573;28;20209;-78
2023/01/31 01:07:55;;;;;;;13.17;7.43;;;;;;;;;;5062664;28;20304;-76
2023/01/31 01:10:22;;;;;;;9.13;6.60;;;;;;;;;;5045122;28;20261;-77
2023/01/31 01:12:49;;;;;;;11.67;6.87;;;;;;;;;;5042965;28;20732;-78
2023/01/31 01:15:17;;;;;;;12.63;5.97;;;;;;;;;;5048650;28;20212;-76
2023/01/31 01:17:45;;;;;;;9.60;6.53;;;;;;;;;;5045110;28;20252;-77
2023/01/31 01:20:13;;;;;;;10.70;6.03;;;;;;;;;;5044525;28;20229;-78
2023/01/31 01:22:41;;;;;;;13.90;6.63;;;;;;;;;;5042586;28;20229;-77
2023/01/31 01:25:09;;;;;;;13.80;6.30;;;;;;;;;;5046312;28;20197;-76
2023/01/31 01:27:37;;;;;;;12.87;6.57;;;;;;;;;;5054092;28;20217;-75
2023/01/31 01:30:05;;;;;;;12.57;5.80;;;;;;;;;;5063679;28;20198;-75
2023/01/31 01:32:32;;;;;;;14.00;7.20;;;;;;;;;;5063844;28;20632;-77
2023/01/31 01:34:59;;;;;;;10.37;5.83;;;;;;;;;;5069168;28;20207;-77
2023/01/31 01:37:29;;;;;;;12.07;6.87;;;;;;;;;;5054581;28;20826;-77
2023/01/31 01:39:56;;;;;;;11.70;6.10;;;;;;;;;;5045884;28;20197;-75
2023/01/31 01:42:24;;;;;;;9.63;6.33;;;;;;;;;;5049731;28;20896;-78
2023/01/31 01:44:53;;;;;;;10.57;5.70;;;;;;;;;;5044397;28;20202;-75
2023/01/31 01:47:38;;;;;;;7.57;5.40;;;;;;;;;;5046451;28;20201;-78
2023/01/31 01:50:08;;;;;;;13.50;6.33;;;;;;;;;;5042753;28;23555;-76
2023/01/31 01:52:39;;;;;;;10.50;6.10;;;;;;;;;;5045030;28;20229;-74
2023/01/31 01:55:18;;;;;;;11.30;6.30;;;;;;;;;;5042843;28;20239;-77
2023/01/31 01:57:47;;;;;;;9.07;4.90;;;;;;;;;;5044866;28;20714;-77
2023/01/31 02:00:17;;;;;;;11.87;5.73;;;;;;;;;;5048315;28;20193;-77
2023/01/31 02:02:45;;;;;;;11.33;5.63;;;;;;;;;;5050803;28;20218;-76
2023/01/31 02:05:15;;;;;;;12.63;5.50;;;;;;;;;;5045722;28;20296;-77
2023/01/31 02:07:42;;;;;;;8.07;5.23;;;;;;;;;;5049417;28;20210;-77
2023/01/31 02:10:11;;;;;;;9.80;5.10;;;;;;;;;;5045640;28;20224;-75
2023/01/31 02:12:39;;;;;;;8.23;5.37;;;;;;;;;;5049013;28;20225;-76
2023/01/31 02:15:06;;;;;;;8.97;5.80;;;;;;;;;;5047610;28;20209;-77
2023/01/31 02:17:34;;;;;;;11.50;5.93;;;;;;;;;;5042718;28;20257;-76
2023/01/31 02:20:40;;;;;;;12.33;7.30;;;;;;;;;;5047347;28;20212;-77
2023/01/31 02:23:13;;;;;;;10.63;6.07;;;;;;;;;;4983233;28;23400;-76
2023/01/31 02:25:40;;;;;;;10.47;6.47;;;;;;;;;;4988973;28;20214;-74
2023/01/31 02:28:10;;;;;;;8.40;5.67;;;;;;;;;;5021141;28;20284;-75
2023/01/31 02:30:38;;;;;;;10.90;6.30;;;;;;;;;;5043738;28;20209;-77
2023/01/31 02:33:24;;;;;;;9.63;5.90;;;;;;;;;;5045247;28;20336;-77
2023/01/31 02:35:51;;;;;;;12.57;6.43;;;;;;;;;;5047119;28;20810;-76
2023/01/31 02:38:30;;;;;;;11.43;5.77;;;;;;;;;;5038015;28;20241;-77
2023/01/31 02:41:04;;;;;;;8.70;5.53;;;;;;;;;;5040747;28;20193;-75
2023/01/31 02:46:44;;;;;;;9.83;6.43;;;;;;;;;;5043502;28;20233;-78
2023/01/31 02:49:33;;;;;;;11.30;6.17;;;;;;;;;;5041903;28;20296;-75
2023/01/31 02:52:15;;;;;;;9.87;6.30;;;;;;;;;;5046601;28;20230;-76
2023/01/31 02:57:38;;;;;;;11.87;6.47;;;;;;;;;;5043590;28;20721;-77
2023/01/31 03:00:06;;;;;;;8.50;6.07;;;;;;;;;;5047628;28;20205;-77
2023/01/31 03:02:33;;;;;;;10.23;6.60;;;;;;;;;;5046541;28;20304;-75
2023/01/31 03:05:01;;;;;;;14.67;7.70;;;;;;;;;;5045857;28;20301;-76
2023/01/31 03:07:32;;;;;;;10.73;7.07;;;;;;;;;;5045497;28;20232;-77
2023/01/31 03:10:00;;;;;;;13.40;6.70;;;;;;;;;;5042337;28;20380;-77
2023/01/31 03:12:32;;;;;;;15.60;6.20;;;;;;;;;;5043978;28;20347;-75
2023/01/31 03:15:12;;;;;;;11.03;5.73;;;;;;;;;;5045731;28;20210;-77
2023/01/31 03:17:39;;;;;;;10.77;6.20;;;;;;;;;;5044746;28;20248;-76
2023/01/31 03:20:19;;;;;;;9.10;5.97;;;;;;;;;;5049417;28;20208;-77
2023/01/31 03:22:51;;;;;;;10.10;6.33;;;;;;;;;;5044774;28;20231;-77
2023/01/31 03:25:21;;;;;;;13.50;7.10;;;;;;;;;;5038414;28;21937;-74
2023/01/31 03:27:51;;;;;;;12.67;6.57;;;;;;;;;;5054990;28;20201;-77
2023/01/31 03:30:21;;;;;;;9.70;5.80;;;;;;;;;;5059298;28;20217;-78
2023/01/31 03:32:51;;;;;;;11.90;5.90;;;;;;;;;;5058212;28;20620;-77
2023/01/31 03:35:20;;;;;;;9.00;5.90;;;;;;;;;;5066164;28;20213;-75
2023/01/31 03:38:00;;;;;;;9.27;6.37;;;;;;;;;;5069748;28;20248;-78
2023/01/31 03:40:33;;;;;;;12.20;6.27;;;;;;;;;;5052556;28;20194;-78
2023/01/31 03:43:04;;;;;;;15.33;6.33;;;;;;;;;;5058625;28;20225;-76
2023/01/31 03:45:41;;;;;;;10.80;5.50;;;;;;;;;;5057016;28;20564;-76
2023/01/31 03:48:13;;;;;;;13.53;6.07;;;;;;;;;;5048173;28;20197;-76
2023/01/31 03:50:42;;;;;;;14.27;6.40;;;;;;;;;;5044205;28;20249;-77
2023/01/31 03:53:12;;;;;;;12.67;6.50;;;;;;;;;;5047777;28;20245;-76
2023/01/31 03:55:43;;;;;;;13.70;6.40;;;;;;;;;;5039073;28;20209;-77
2023/01/31 03:58:13;;;;;;;12.30;6.30;;;;;;;;;;5042754;28;21041;-74
2023/01/31 04:00:42;;;;;;;11.13;5.83;;;;;;;;;;5036550;28;20205;-75
2023/01/31 04:03:23;;;;;;;12.97;6.60;;;;;;;;;;5044094;28;20225;-76
2023/01/31 04:05:50;;;;;;;12.40;6.07;;;;;;;;;;5052307;28;20607;-76
2023/01/31 04:08:17;;;;;;;11.03;6.00;;;;;;;;;;5047589;28;20216;-76
2023/01/31 04:10:45;;;;;;;17.07;7.47;;;;;;;;;;5051899;28;20201;-76
2023/01/31 04:13:12;;;;;;;13.47;7.43;;;;;;;;;;5051572;28;20217;-75
2023/01/31 04:15:40;;;;;;;17.40;6.67;;;;;;;;;;5047067;28;20271;-75
2023/01/31 04:18:08;;;;;;;11.03;6.73;;;;;;;;;;5048453;28;20244;-75
2023/01/31 04:20:35;;;;;;;10.67;6.53;;;;;;;;;;5050452;28;20243;-77
2023/01/31 04:23:03;;;;;;;13.53;6.40;;;;;;;;;;5041239;28;20239;-76
2023/01/31 04:25:32;;;;;;;12.20;6.63;;;;;;;;;;5051510;28;20198;-77
2023/01/31 04:27:59;;;;;;;13.30;6.30;;;;;;;;;;5046585;28;20210;-77
2023/01/31 04:30:26;;;;;;;14.27;6.30;;;;;;;;;;5051201;28;20202;-75
2023/01/31 04:32:54;;;;;;;15.53;7.17;;;;;;;;;;5044303;28;20310;-76
2023/01/31 04:35:21;;;;;;;11.13;6.67;;;;;;;;;;5049045;28;20263;-77
2023/01/31 04:37:48;;;;;;;10.20;6.50;;;;;;;;;;5042875;28;20225;-77
2023/01/31 04:40:16;;;;;;;18.00;7.00;;;;;;;;;;5045715;28;20292;-76
2023/01/31 04:42:43;;;;;;;11.00;6.50;;;;;;;;;;5045314;28;20298;-76
2023/01/31 04:45:10;;;;;;;9.13;6.23;;;;;;;;;;5043320;28;20209;-76
2023/01/31 04:47:38;;;;;;;11.97;6.57;;;;;;;;;;5043140;28;20201;-76
2023/01/31 04:50:05;;;;;;;9.13;6.50;;;;;;;;;;5045013;28;20224;-76
2023/01/31 04:52:32;;;;;;;15.57;7.60;;;;;;;;;;5045924;28;20230;-76
2023/01/31 04:54:59;;;;;;;12.33;7.47;;;;;;;;;;5049416;28;20201;-78
2023/01/31 04:57:27;;;;;;;16.60;7.50;;;;;;;;;;5062947;28;20230;-77
2023/01/31 04:59:54;;;;;;;15.73;7.17;;;;;;;;;;5062686;28;20202;-77
2023/01/31 05:02:22;;;;;;;16.07;8.83;;;;;;;;;;5061664;28;20226;-77
2023/01/31 05:04:49;;;;;;;17.03;7.00;;;;;;;;;;5064250;28;20223;-77
2023/01/31 05:07:16;;;;;;;15.13;6.97;;;;;;;;;;5049377;28;20346;-76
2023/01/31 05:09:44;;;;;;;13.33;6.60;;;;;;;;;;5045450;28;20221;-76
2023/01/31 05:12:11;;;;;;;14.13;7.00;;;;;;;;;;5041205;28;20238;-77
2023/01/31 05:14:38;;;;;;;17.60;6.93;;;;;;;;;;5047026;28;20209;-77
2023/01/31 05:17:06;;;;;;;10.47;6.13;;;;;;;;;;5042334;28;20225;-77
2023/01/31 05:19:33;;;;;;;11.87;6.23;;;;;;;;;;5047591;28;20206;-77
2023/01/31 05:22:00;;;;;;;9.63;6.40;;;;;;;;;;5040698;28;20735;-77
2023/01/31 05:24:29;;;;;;;11.33;6.70;;;;;;;;;;5042299;28;20233;-75
2023/01/31 05:26:58;;;;;;;13.87;6.87;;;;;;;;;;5043603;28;20551;-76
2023/01/31 05:29:26;;;;;;;13.83;6.43;;;;;;;;;;5061757;28;20201;-78
2023/01/31 05:31:54;;;;;;;11.97;6.50;;;;;;;;;;5065885;28;20264;-77
2023/01/31 05:34:23;;;;;;;16.40;6.90;;;;;;;;;;5068119;28;20251;-78
2023/01/31 05:36:50;;;;;;;16.37;6.73;;;;;;;;;;5070248;28;20232;-78
2023/01/31 05:39:17;;;;;;;14.37;6.83;;;;;;;;;;5064369;28;20264;-76
2023/01/31 05:41:44;;;;;;;11.73;6.33;;;;;;;;;;5067524;28;20278;-78
2023/01/31 05:44:13;;;;;;;11.87;6.03;;;;;;;;;;5052605;28;20208;-77
2023/01/31 05:46:40;;;;;;;14.07;6.10;;;;;;;;;;5049196;28;20198;-77
2023/01/31 05:49:08;;;;;;;14.23;5.93;;;;;;;;;;5043123;28;20211;-76
2023/01/31 05:51:35;;;;;;;11.07;5.50;;;;;;;;;;5045960;28;20229;-77
2023/01/31 05:54:05;;;;;;;12.67;5.93;;;;;;;;;;5041636;28;21738;-78
2023/01/31 05:56:32;;;;;;;10.87;5.20;;;;;;;;;;5045024;28;20202;-77
2023/01/31 05:59:02;;;;;;;12.30;5.90;;;;;;;;;;5040547;28;20221;-79
2023/01/31 06:01:29;;;;;;;9.63;5.60;;;;;;;;;;5049619;28;20298;-77
2023/01/31 06:03:57;;;;;;;7.27;5.00;;;;;;;;;;5041625;28;20683;-77
2023/01/31 06:06:24;;;;;;;10.00;5.20;;;;;;;;;;5047637;28;20297;-76
2023/01/31 06:08:51;;;;;;;12.60;6.13;;;;;;;;;;5044994;28;20750;-77
2023/01/31 06:11:18;;;;;;;15.40;4.83;;;;;;;;;;5048389;28;20709;-77
2023/01/31 06:13:47;;;;;;;14.50;5.63;;;;;;;;;;5047172;28;20202;-77
2023/01/31 06:16:14;;;;;;;10.63;5.60;;;;;;;;;;5046937;28;20209;-77
2023/01/31 06:18:42;;;;;;;15.10;6.10;;;;;;;;;;5047900;28;20213;-77
2023/01/31 06:21:10;;;;;;;11.93;5.73;;;;;;;;;;5046512;28;20210;-76
2023/01/31 06:23:39;;;;;;;13.27;5.47;;;;;;;;;;5046126;28;20213;-77
2023/01/31 06:26:06;;;;;;;16.27;5.70;;;;;;;;;;5052769;28;21359;-77
2023/01/31 06:28:33;;;;;;;13.43;5.27;;;;;;;;;;5043582;28;21238;-76
2023/01/31 06:31:05;;;;;;;10.17;5.10;;;;;;;;;;5046453;28;20686;-78
2023/01/31 06:33:32;;;;;;;13.50;5.73;;;;;;;;;;5047570;28;20225;-77
2023/01/31 06:36:13;;;;;;;13.77;6.07;;;;;;;;;;5039905;28;20213;-77
2023/01/31 06:38:44;;;;;;;12.37;6.03;;;;;;;;;;5042765;28;20222;-76
2023/01/31 06:41:11;;;;;;;10.63;5.67;;;;;;;;;;5035812;28;20206;-77
2023/01/31 06:43:38;;;;;;;16.70;5.93;;;;;;;;;;5045317;28;20206;-77
2023/01/31 06:46:06;;;;;;;11.07;5.53;;;;;;;;;;5035528;28;20209;-76
2023/01/31 06:48:34;;;;;;;10.20;5.53;;;;;;;;;;5042553;28;20213;-76
2023/01/31 06:51:01;;;;;;;16.00;5.87;;;;;;;;;;5046482;28;20209;-76
2023/01/31 06:53:28;;;;;;;11.30;5.40;;;;;;;;;;5043264;28;20481;-76
2023/01/31 06:55:56;;;;;;;10.80;5.97;;;;;;;;;;5048534;28;20204;-75
2023/01/31 06:58:23;;;;;;;10.17;5.37;;;;;;;;;;5041202;28;20233;-75
2023/01/31 07:00:51;;;;;;;16.20;5.73;;;;;;;;;;5038629;28;20210;-75
2023/01/31 07:03:18;;;;;;;7.47;5.00;;;;;;;;;;5043108;28;20237;-76
2023/01/31 07:05:47;;;;;;;13.70;5.33;;;;;;;;;;5038357;28;20301;-77
2023/01/31 07:08:14;;;;;;;15.00;5.87;;;;;;;;;;5045872;28;20216;-76
2023/01/31 07:10:41;;;;;;;14.17;6.47;;;;;;;;;;5038597;28;20299;-77
2023/01/31 07:13:09;;;;;;;14.93;5.80;;;;;;;;;;5041864;28;20229;-77
2023/01/31 07:15:36;;;;;;;9.23;5.30;;;;;;;;;;5038417;28;20205;-77
2023/01/31 07:18:05;;;;;;;17.03;5.57;;;;;;;;;;5042897;28;20238;-76
2023/01/31 07:20:32;;;;;;;9.90;5.77;;;;;;;;;;5034872;28;20213;-74
2023/01/31 07:22:59;;;;;;;11.43;5.17;;;;;;;;;;5042534;28;20765;-74
2023/01/31 07:25:29;;;;;;;11.23;5.50;;;;;;;;;;5038733;28;20272;-76
2023/01/31 07:27:56;;;;;;;10.93;5.23;;;;;;;;;;5054724;28;20205;-77
2023/01/31 07:30:23;;;;;;;13.07;4.83;;;;;;;;;;5058332;28;20202;-77
2023/01/31 07:32:50;;;;;;;12.20;4.67;;;;;;;;;;5062447;28;20233;-77
2023/01/31 07:35:18;;;;;;;13.27;5.37;;;;;;;;;;5051884;28;20226;-77
2023/01/31 07:37:45;;;;;;;11.33;4.63;;;;;;;;;;5049245;28;20224;-75
2023/01/31 07:40:14;;;;;;;13.23;5.50;;;;;;;;;;5045912;28;20266;-75
2023/01/31 07:42:41;;;;;;;11.60;4.93;;;;;;;;;;5042112;28;20236;-76
2023/01/31 07:45:11;;;;;;;13.20;5.53;;;;;;;;;;5046739;28;20199;-77
2023/01/31 07:47:58;;;;;;;8.43;4.77;;;;;;;;;;5048646;28;20217;-75
2023/01/31 07:50:26;;;;;;;15.63;5.63;;;;;;;;;;5043235;28;20208;-77
2023/01/31 07:52:54;;;;;;;12.33;4.73;;;;;;;;;;5045549;28;20233;-77
2023/01/31 07:55:21;;;;;;;7.43;4.70;;;;;;;;;;5046968;28;20240;-75
2023/01/31 07:57:48;;;;;;;8.33;4.33;;;;;;;;;;5046684;28;20593;-76
2023/01/31 08:05:49;;;;;;;12.30;4.87;;;;;;;;;;5041489;28;20213;-77
2023/01/31 08:08:16;;;;;;;11.10;4.90;;;;;;;;;;5046041;28;20208;-75
2023/01/31 08:10:45;;;;;;;9.70;4.60;;;;;;;;;;5041943;28;20247;-75
2023/01/31 08:13:13;;;;;;;10.93;5.07;;;;;;;;;;5047471;28;20248;-75
2023/01/31 08:15:40;;;;;;;11.67;4.80;;;;;;;;;;5040547;28;20206;-77
2023/01/31 08:18:08;;;;;;;11.53;4.40;;;;;;;;;;5049152;28;20286;-75
2023/01/31 08:20:36;;;;;;;10.27;4.50;;;;;;;;;;5047008;28;20576;-76
2023/01/31 08:23:03;;;;;;;9.87;4.57;;;;;;;;;;5040717;28;23404;-77
2023/01/31 08:25:31;;;;;;;12.10;4.63;;;;;;;;;;5048107;28;20704;-76
2023/01/31 08:27:58;;;;;;;10.47;4.93;;;;;;;;;;5040000;28;20214;-77
2023/01/31 08:30:27;;;;;;;10.27;5.40;;;;;;;;;;5044687;28;20283;-75
2023/01/31 08:32:54;;;;;;;7.80;5.20;;;;;;;;;;5040540;28;20233;-77
2023/01/31 08:35:21;;;;;;;10.17;5.30;;;;;;;;;;5044262;28;20406;-75
2023/01/31 08:37:49;;;;;;;13.43;5.17;;;;;;;;;;5041476;28;20352;-74
2023/01/31 08:40:19;;;;;;;9.57;4.87;;;;;;;;;;5041738;28;20197;-76
2023/01/31 08:42:56;;;;;;;10.80;5.30;;;;;;;;;;5045395;28;20247;-78
2023/01/31 08:45:23;;;;;;;8.07;4.80;;;;;;;;;;5044497;28;20206;-75
2023/01/31 08:47:55;;;;;;;11.47;5.20;;;;;;;;;;5049877;28;20294;-78
2023/01/31 08:50:23;;;;;;;6.83;4.30;;;;;;;;;;5043882;28;20238;-78
2023/01/31 08:52:54;;;;;;;9.73;5.10;;;;;;;;;;5048168;28;20218;-77
2023/01/31 08:55:21;;;;;;;15.23;5.90;;;;;;;;;;5059146;28;20205;-77
2023/01/31 08:57:49;;;;;;;13.40;4.93;;;;;;;;;;5065242;28;20285;-77
2023/01/31 09:00:26;;;;;;;10.60;5.13;;;;;;;;;;5068880;28;20556;-78
2023/01/31 09:02:54;;;;;;;11.40;5.00;;;;;;;;;;5068379;28;20218;-77
2023/01/31 09:05:22;;;;;;;12.23;5.50;;;;;;;;;;5062289;28;20202;-79
2023/01/31 09:07:49;;;;;;;9.40;4.50;;;;;;;;;;5048824;28;20286;-74
2023/01/31 09:10:17;;;;;;;12.57;5.03;;;;;;;;;;5047549;28;20989;-77
2023/01/31 09:12:45;;;;;;;14.80;5.27;;;;;;;;;;5047013;28;20222;-79
2023/01/31 09:15:12;;;;;;;9.87;4.67;;;;;;;;;;5049245;28;20277;-78
2023/01/31 09:17:41;;;;;;;10.60;5.07;;;;;;;;;;5050398;28;20205;-78
2023/01/31 09:20:09;;;;;;;7.17;3.93;;;;;;;;;;5044322;28;20209;-77
2023/01/31 09:22:36;;;;;;;8.10;4.20;;;;;;;;;;5048009;28;20312;-77
2023/01/31 09:25:04;;;;;;;8.57;4.97;;;;;;;;;;5044687;28;20682;-75
2023/01/31 09:27:32;;;;;;;10.47;4.13;;;;;;;;;;5055473;28;20551;-77
2023/01/31 09:29:59;;;;;;;9.63;4.63;;;;;;;;;;5070645;28;20288;-76
2023/01/31 09:32:28;;;;;;;7.87;4.40;;;;;;;;;;5059449;28;20290;-77
2023/01/31 09:34:56;;;;;;;7.13;3.50;;;;;;;;;;5055448;28;20206;-77
2023/01/31 09:37:23;;;;;;;9.17;4.40;;;;;;;;;;5049377;28;20209;-76
2023/01/31 09:39:50;;;;;;;6.43;3.40;;;;;;;;;;5043829;28;20632;-78
2023/01/31 09:42:23;;;;;;;9.67;4.23;;;;;;;;;;5041734;28;20236;-75
2023/01/31 09:44:58;;;;;;;7.70;3.90;;;;;;;;;;5048544;28;20297;-77
2023/01/31 09:47:31;;;;;;;9.93;4.07;;;;;;;;;;5043504;28;20407;-78
2023/01/31 09:50:01;;;;;;;9.77;4.73;;;;;;;;;;5045346;28;20209;-74
2023/01/31 09:52:30;;;;;;;6.13;3.87;;;;;;;;;;5047712;28;20321;-78
2023/01/31 09:54:58;;;;;;;8.20;4.30;;;;;;;;;;5046953;28;20203;-74
2023/01/31 09:57:37;;;;;;;8.77;4.57;;;;;;;;;;5044415;28;20216;-77
2023/01/31 10:00:26;;;;;;;8.00;4.30;;;;;;;;;;5046050;28;20225;-78
2023/01/31 10:03:12;;;;;;;10.33;4.17;;;;;;;;;;5046437;28;20284;-75
2023/01/31 10:05:45;;;;;;;7.43;3.60;;;;;;;;;;5048044;28;20235;-77
2023/01/31 10:08:12;;;;;;;9.33;3.90;;;;;;;;;;5045767;28;20206;-79
2023/01/31 10:10:45;;;;;;;6.63;4.00;;;;;;;;;;5048734;28;20745;-77
2023/01/31 10:13:18;;;;;;;6.90;3.83;;;;;;;;;;5050928;28;20286;-78
2023/01/31 10:15:48;;;;;;;13.33;4.90;;;;;;;;;;5048648;28;20209;-77
2023/01/31 10:18:15;;;;;;;7.50;3.83;;;;;;;;;;5045611;28;20754;-78
2023/01/31 10:20:45;;;;;;;6.53;3.60;;;;;;;;;;5049950;28;20202;-78
2023/01/31 10:23:25;;;;;;;6.60;3.50;;;;;;;;;;5047951;28;20226;-79
2023/01/31 10:25:55;;;;;;;8.30;4.07;;;;;;;;;;5043973;28;20209;-77
2023/01/31 10:28:38;;;;;;;6.90;3.27;;;;;;;;;;5047260;28;20630;-74
2023/01/31 10:31:14;;;;;;;9.27;3.73;;;;;;;;;;5048138;28;20325;-77
2023/01/31 10:33:51;;;;;;;7.37;3.50;;;;;;;;;;5040115;28;20605;-76
2023/01/31 10:36:21;;;;;;;7.40;3.70;;;;;;;;;;5046565;28;20209;-76
2023/01/31 10:38:56;;;;;;;9.47;3.33;;;;;;;;;;5047196;28;21249;-76
2023/01/31 10:41:34;;;;;;;5.93;3.10;;;;;;;;;;5045821;28;20221;-75
2023/01/31 10:44:17;;;;;;;6.17;3.33;;;;;;;;;;5045731;28;20694;-75
2023/01/31 10:46:44;;;;;;;6.50;3.10;;;;;;;;;;5046647;28;20298;-76
2023/01/31 10:49:11;;;;;;;5.47;3.10;;;;;;;;;;5039281;28;20205;-76
2023/01/31 10:51:39;;;;;;;6.33;3.17;;;;;;;;;;5044821;28;20232;-78
2023/01/31 10:54:25;;;;;;;6.83;2.90;;;;;;;;;;5043779;28;20206;-77
2023/01/31 10:56:53;;;;;;;5.97;2.97;;;;;;;;;;5039736;28;20213;-77
2023/01/31 10:59:37;;;;;;;4.03;2.50;;;;;;;;;;5040853;28;20225;-78
2023/01/31 11:02:05;;;;;;;6.90;3.00;;;;;;;;;;5047265;28;20225;-78
2023/01/31 11:04:38;;;;;;;8.27;3.10;;;;;;;;;;5039236;28;20201;-76
2023/01/31 11:07:05;;;;;;;5.90;3.13;;;;;;;;;;5036955;28;20210;-76
2023/01/31 11:09:34;;;;;;;8.77;2.97;;;;;;;;;;5039445;28;20218;-77
2023/01/31 11:12:03;;;;;;;5.80;2.90;;;;;;;;;;5040390;28;20718;-76
2023/01/31 11:14:30;;;;;;;6.63;2.57;;;;;;;;;;5046620;28;20233;-78
2023/01/31 11:17:09;;;;;;;5.90;3.07;;;;;;;;;;5043351;28;20279;-74
2023/01/31 11:19:50;;;;;;;7.60;2.90;;;;;;;;;;5044339;28;20224;-76
2023/01/31 11:22:25;;;;;;;8.70;3.20;;;;;;;;;;5047726;28;20217;-76
2023/01/31 11:24:53;;;;;;;7.30;2.97;;;;;;;;;;5038660;28;20210;-77
2023/01/31 11:27:32;;;;;;;5.80;2.40;;;;;;;;;;5056537;28;20212;-76
2023/01/31 11:30:00;;;;;;;9.40;2.80;;;;;;;;;;5065597;28;20297;-77
2023/01/31 11:32:29;;;;;;;2.47;2.27;;;;;;;;;;5063120;28;20661;-78
2023/01/31 11:35:04;;;;;;;10.73;2.60;;;;;;;;;;5061245;28;20230;-78
2023/01/31 11:37:32;;;;;;;4.70;2.43;;;;;;;;;;5065330;28;20228;-77
2023/01/31 11:40:02;;;;;;;8.63;3.00;;;;;;;;;;5061422;28;20232;-76
2023/01/31 11:42:29;;;;;;;4.90;2.70;;;;;;;;;;5053584;28;20291;-78
2023/01/31 11:44:58;;;;;;;5.33;2.80;;;;;;;;;;5042682;28;20571;-76
2023/01/31 11:47:27;;;;;;;7.03;2.63;;;;;;;;;;5036858;28;20355;-75
2023/01/31 11:49:55;;;;;;;5.43;2.30;;;;;;;;;;5045890;28;20300;-77
2023/01/31 11:52:28;;;;;;;4.27;2.27;;;;;;;;;;5038070;28;20232;-76
2023/01/31 11:54:58;;;;;;;5.30;2.30;;;;;;;;;;5041324;28;20671;-76
2023/01/31 11:57:26;;;;;;;3.70;2.10;;;;;;;;;;5037644;28;20208;-78
2023/01/31 11:59:55;;;;;;;6.37;2.63;;;;;;;;;;5048522;28;20222;-75
2023/01/31 12:02:31;;;;;;;2.60;2.40;;;;;;;;;;5068487;28;20375;-77
2023/01/31 12:05:01;;;;;;;4.43;3.23;;;;;;;;;;5060843;28;20202;-76
2023/01/31 12:07:30;;;;;;;5.47;2.10;;;;;;;;;;5052371;28;20202;-76
2023/01/31 12:09:57;;;;;;;7.83;2.70;;;;;;;;;;5045417;28;20234;-77
2023/01/31 12:12:34;;;;;;;3.40;2.37;;;;;;;;;;5039542;28;20225;-76
2023/01/31 12:15:03;;;;;;;7.27;3.17;;;;;;;;;;5043510;28;20215;-76
2023/01/31 12:17:33;;;;;;;3.80;2.50;;;;;;;;;;5043858;28;20868;-77
2023/01/31 12:20:09;;;;;;;4.13;2.33;;;;;;;;;;5043941;28;20612;-76
2023/01/31 12:23:23;;;;;;;3.63;2.53;;;;;;;;;;5044934;28;20225;-74
2023/01/31 12:25:50;;;;;;;5.90;2.50;;;;;;;;;;5031030;28;20209;-77
2023/01/31 12:28:33;;;;;;;3.67;2.43;;;;;;;;;;5046377;28;20690;-78
2023/01/31 12:31:21;;;;;;;5.03;2.57;;;;;;;;;;5040666;28;20206;-76
2023/01/31 12:33:54;;;;;;;6.57;3.40;;;;;;;;;;5024596;28;20217;-75
2023/01/31 12:36:30;;;;;;;3.57;3.13;;;;;;;;;;5048719;28;20288;-76
2023/01/31 12:39:14;;;;;;;8.13;6.27;;;;;;;;;;5046765;28;20231;-74
2023/01/31 12:41:46;;;;;;;7.40;3.33;;;;;;;;;;5043299;28;20299;-78
2023/01/31 12:44:20;;;;;;;5.33;3.63;;;;;;;;;;5048573;28;20202;-77
2023/01/31 12:46:59;;;;;;;3.00;2.50;;;;;;;;;;5045047;28;20771;-76
2023/01/31 12:49:44;;;;;;;6.43;3.17;;;;;;;;;;5046712;28;20209;-77
2023/01/31 12:52:14;;;;;;;5.07;2.40;;;;;;;;;;5052225;28;20252;-76
2023/01/31 12:54:54;;;;;;;7.20;2.73;;;;;;;;;;5047282;28;20629;-75
2023/01/31 12:57:39;;;;;;;6.00;2.63;;;;;;;;;;5070257;28;20209;-77
2023/01/31 13:00:13;;;;;;;5.53;2.80;;;;;;;;;;5056473;28;20246;-76
2023/01/31 13:02:52;;;;;;;4.00;2.80;;;;;;;;;;5060183;28;20222;-76
2023/01/31 13:05:25;;;;;;;4.90;2.50;;;;;;;;;;5073095;28;20232;-78
2023/01/31 13:08:00;;;;;;;4.80;2.80;;;;;;;;;;5052707;28;20227;-76
2023/01/31 13:10:33;;;;;;;4.60;3.00;;;;;;;;;;5049714;28;20209;-78
2023/01/31 13:13:01;;;;;;;7.63;3.13;;;;;;;;;;5049779;28;20227;-75
2023/01/31 13:15:33;;;;;;;4.40;3.20;;;;;;;;;;5046240;28;20793;-77
2023/01/31 13:18:03;;;;;;;5.47;2.70;;;;;;;;;;5052068;28;20285;-76
2023/01/31 13:20:48;;;;;;;6.07;2.83;;;;;;;;;;5048649;28;20233;-78
2023/01/31 13:23:30;;;;;;;7.90;2.80;;;;;;;;;;5043843;28;20221;-76
2023/01/31 13:26:02;;;;;;;5.10;3.10;;;;;;;;;;5047036;28;20293;-76
2023/01/31 13:28:30;;;;;;;7.17;2.57;;;;;;;;;;5062653;28;20296;-79
2023/01/31 13:30:59;;;;;;;3.20;2.13;;;;;;;;;;5066438;28;20207;-77
2023/01/31 13:33:29;;;;;;;5.33;2.50;;;;;;;;;;5066114;28;20562;-78
2023/01/31 13:36:01;;;;;;;4.93;2.60;;;;;;;;;;5071618;28;20573;-75
2023/01/31 13:38:33;;;;;;;3.90;2.70;;;;;;;;;;5043527;28;20233;-76
2023/01/31 13:41:01;;;;;;;4.30;2.50;;;;;;;;;;5050938;28;20229;-76
2023/01/31 13:43:28;;;;;;;6.80;2.80;;;;;;;;;;5050306;28;20590;-79
2023/01/31 13:46:03;;;;;;;5.00;2.70;;;;;;;;;;5044837;28;20285;-77
2023/01/31 13:48:40;;;;;;;5.57;2.93;;;;;;;;;;5049114;28;20202;-75
2023/01/31 13:51:14;;;;;;;9.77;2.70;;;;;;;;;;5045992;28;20297;-78
2023/01/31 13:53:47;;;;;;;5.10;2.87;;;;;;;;;;5048299;28;20295;-78
2023/01/31 13:56:20;;;;;;;8.73;2.80;;;;;;;;;;5049070;28;20209;-76
2023/01/31 13:58:48;;;;;;;3.57;2.63;;;;;;;;;;5045077;28;20312;-75
2023/01/31 14:01:18;;;;;;;7.60;2.93;;;;;;;;;;5048091;28;20223;-76
2023/01/31 14:04:04;;;;;;;4.73;3.00;;;;;;;;;;5045274;28;20213;-75
2023/01/31 14:06:50;;;;;;;5.13;2.63;;;;;;;;;;5043082;28;21726;-77
2023/01/31 14:09:36;;;;;;;3.77;3.00;;;;;;;;;;5046947;28;20223;-76
2023/01/31 14:12:07;;;;;;;4.00;2.80;;;;;;;;;;5028878;28;20245;-75
2023/01/31 14:14:36;;;;;;;5.47;3.10;;;;;;;;;;5044651;28;20212;-76
2023/01/31 14:17:04;;;;;;;4.33;2.47;;;;;;;;;;5047807;28;20210;-77
2023/01/31 14:19:51;;;;;;;4.77;3.17;;;;;;;;;;5047456;28;20285;-76
2023/01/31 14:22:35;;;;;;;2.77;2.50;;;;;;;;;;5030742;28;20228;-77
2023/01/31 14:25:08;;;;;;;4.77;2.37;;;;;;;;;;5048458;28;20273;-77
2023/01/31 14:27:43;;;;;;;6.47;2.60;;;;;;;;;;5044048;28;21294;-76
2023/01/31 14:30:26;;;;;;;2.70;2.50;;;;;;;;;;5046471;28;20213;-77
2023/01/31 14:32:57;;;;;;;4.43;2.30;;;;;;;;;;5050653;28;20221;-78
2023/01/31 14:35:30;;;;;;;4.23;2.97;;;;;;;;;;5032381;28;20769;-77
2023/01/31 14:38:07;;;;;;;6.57;2.87;;;;;;;;;;5042991;28;20683;-78
2023/01/31 14:40:37;;;;;;;6.37;2.53;;;;;;;;;;5032097;28;20226;-79
2023/01/31 14:43:28;;;;;;;2.90;2.40;;;;;;;;;;5054024;28;20317;-78
2023/01/31 14:45:55;;;;;;;6.73;2.60;;;;;;;;;;5027124;28;20212;-77
2023/01/31 14:48:41;;;;;;;3.47;2.63;;;;;;;;;;5046405;28;20198;-77
2023/01/31 14:51:15;;;;;;;3.83;2.60;;;;;;;;;;5047057;28;20421;-76
2023/01/31 14:53:51;;;;;;;4.57;3.20;;;;;;;;;;5047069;28;20211;-78
2023/01/31 14:56:19;;;;;;;7.87;6.00;;;;;;;;;;5048772;28;20221;-75
2023/01/31 14:58:46;;;;;;;9.30;5.70;;;;;;;;;;5026698;28;20202;-73
2023/01/31 15:01:18;;;;;;;7.37;3.60;;;;;;;;;;5047970;28;20206;-78
2023/01/31 15:03:51;;;;;;;7.07;3.07;;;;;;;;;;5042721;28;20203;-78
2023/01/31 15:06:27;;;;;;;4.53;2.73;;;;;;;;;;5039229;28;20209;-78
2023/01/31 15:09:14;;;;;;;7.57;3.17;;;;;;;;;;5042688;28;20226;-78